Time;durP1;ratioP1;P1;durP2;ratioP2;P2;SDS_P1;SDS_P2;PMS_P1;PMS_P2;Temp;Humidity;BMP_temperature;BMP_pressure;BME280_temperature;BME280_humidity;BME280_pressure;Samples;Min_cycle;Max_cycle;Signal;HPM_P1;HPM_P2
2023/04/11 00:00:06;;;;;;;3.13;1.02;;;19.80;57.50;;;;;;5112606;28;20048;-60
2023/04/11 00:02:33;;;;;;;2.70;0.85;;;19.80;57.40;;;;;;5111885;28;20054;-61
2023/04/11 00:04:59;;;;;;;3.67;0.98;;;19.80;57.30;;;;;;5112336;28;20051;-61
2023/04/11 00:07:25;;;;;;;2.75;0.88;;;19.80;57.20;;;;;;5112794;28;20177;-61
2023/04/11 00:09:51;;;;;;;2.83;1.13;;;19.80;57.20;;;;;;5112100;28;20554;-61
2023/04/11 00:12:16;;;;;;;3.10;1.40;;;19.80;57.20;;;;;;5110822;28;20050;-61
2023/04/11 00:14:44;;;;;;;2.78;0.95;;;19.80;57.20;;;;;;5112377;28;20049;-60
2023/04/11 00:17:11;;;;;;;2.00;1.00;;;19.80;57.20;;;;;;5111558;28;20130;-61
2023/04/11 00:19:37;;;;;;;2.58;1.05;;;19.80;57.20;;;;;;5111914;28;20122;-61
2023/04/11 00:22:03;;;;;;;2.72;1.10;;;19.70;57.20;;;;;;5109879;28;20083;-61
2023/04/11 00:24:29;;;;;;;2.30;1.00;;;19.70;57.30;;;;;;5112339;28;20052;-61
2023/04/11 00:26:56;;;;;;;2.15;1.23;;;19.70;57.10;;;;;;5111666;28;20097;-61
2023/04/11 00:29:22;;;;;;;2.75;1.23;;;19.70;57.10;;;;;;5111774;28;20075;-61
2023/04/11 00:31:48;;;;;;;2.28;0.85;;;19.70;57.20;;;;;;5112088;28;20078;-61
2023/04/11 00:34:13;;;;;;;3.00;1.05;;;19.80;57.20;;;;;;5111939;28;20054;-61
2023/04/11 00:36:40;;;;;;;3.13;1.10;;;19.70;57.10;;;;;;5111147;28;20043;-61
2023/04/11 00:39:07;;;;;;;2.15;0.90;;;19.70;57.10;;;;;;5115813;28;20047;-61
2023/04/11 00:41:33;;;;;;;2.20;0.90;;;19.70;57.10;;;;;;5116281;28;20088;-61
2023/04/11 00:43:59;;;;;;;2.05;0.82;;;19.70;57.10;;;;;;5115049;28;20428;-61
2023/04/11 00:46:24;;;;;;;2.78;0.90;;;19.70;57.10;;;;;;5115739;28;20048;-61
2023/04/11 00:48:50;;;;;;;2.03;0.98;;;19.70;57.10;;;;;;5114831;28;20040;-61
2023/04/11 00:51:15;;;;;;;2.50;0.90;;;19.70;57.20;;;;;;5096897;28;20043;-61
2023/04/11 00:53:41;;;;;;;1.63;0.80;;;19.70;57.10;;;;;;5114942;28;20157;-61
2023/04/11 00:56:07;;;;;;;1.70;0.75;;;19.70;57.10;;;;;;5114307;28;20071;-61
2023/04/11 00:58:33;;;;;;;1.70;0.75;;;19.60;57.10;;;;;;5115334;28;20032;-61
2023/04/11 01:00:59;;;;;;;1.20;0.80;;;19.60;57.10;;;;;;5114078;28;20048;-61
2023/04/11 01:03:25;;;;;;;1.90;0.75;;;19.60;57.10;;;;;;5115816;28;20077;-61
2023/04/11 01:05:53;;;;;;;2.88;0.70;;;19.60;57.00;;;;;;5114713;28;20132;-61
2023/04/11 01:08:19;;;;;;;2.03;0.70;;;19.60;57.00;;;;;;5114351;28;20047;-61
2023/04/11 01:10:45;;;;;;;3.05;0.95;;;19.60;57.10;;;;;;5097589;28;20112;-61
2023/04/11 01:13:11;;;;;;;1.85;0.68;;;19.60;57.00;;;;;;5114510;28;20503;-61
2023/04/11 01:15:36;;;;;;;2.25;0.75;;;19.60;57.00;;;;;;5097551;28;20123;-61
2023/04/11 01:18:03;;;;;;;2.58;0.88;;;19.60;57.00;;;;;;5115141;28;20502;-61
2023/04/11 01:20:28;;;;;;;2.35;0.73;;;19.60;56.90;;;;;;5096372;28;20044;-61
2023/04/11 01:22:55;;;;;;;2.67;0.80;;;19.60;57.00;;;;;;5113668;28;20061;-61
2023/04/11 01:25:21;;;;;;;1.85;0.70;;;19.60;56.90;;;;;;5096480;28;20098;-62
2023/04/11 01:27:47;;;;;;;2.33;1.00;;;19.60;56.90;;;;;;5115185;28;20522;-61
2023/04/11 01:30:13;;;;;;;1.75;0.70;;;19.60;56.90;;;;;;5111975;28;20075;-61
2023/04/11 01:32:38;;;;;;;2.30;0.80;;;19.60;56.90;;;;;;5098407;28;20120;-61
2023/04/11 01:35:04;;;;;;;2.78;0.90;;;19.50;57.50;;;;;;5114469;28;20067;-61
2023/04/11 01:37:30;;;;;;;2.03;0.70;;;19.60;56.80;;;;;;5113767;28;20391;-61
2023/04/11 01:39:55;;;;;;;3.15;0.90;;;19.50;56.70;;;;;;5112550;28;20079;-61
2023/04/11 01:42:21;;;;;;;1.60;0.65;;;19.50;56.80;;;;;;5096851;28;20501;-61
2023/04/11 01:44:49;;;;;;;1.95;0.70;;;19.50;56.80;;;;;;5114649;28;20051;-61
2023/04/11 01:47:15;;;;;;;1.63;0.70;;;19.50;56.80;;;;;;5112813;28;20072;-61
2023/04/11 01:49:41;;;;;;;2.63;0.70;;;19.50;56.80;;;;;;5114343;28;20484;-61
2023/04/11 01:52:06;;;;;;;2.03;0.70;;;19.50;56.90;;;;;;5114625;28;20039;-61
2023/04/11 01:54:32;;;;;;;2.08;0.80;;;19.50;56.80;;;;;;5112925;28;20058;-62
2023/04/11 01:56:57;;;;;;;2.45;0.75;;;19.50;56.80;;;;;;5096294;28;20127;-61
2023/04/11 01:59:23;;;;;;;1.95;0.77;;;19.50;56.80;;;;;;5114510;28;20056;-62
2023/04/11 02:01:48;;;;;;;1.38;0.50;;;19.50;56.80;;;;;;5113505;28;20537;-62
2023/04/11 02:04:14;;;;;;;1.25;0.55;;;19.50;56.80;;;;;;5113231;28;20392;-63
2023/04/11 02:06:40;;;;;;;1.33;0.50;;;19.50;56.80;;;;;;5113374;28;20050;-62
2023/04/11 02:09:05;;;;;;;1.63;0.57;;;19.50;56.80;;;;;;5111579;28;20113;-62
2023/04/11 02:11:31;;;;;;;1.17;0.57;;;19.40;56.70;;;;;;5114650;28;20539;-62
2023/04/11 02:13:56;;;;;;;1.98;0.68;;;19.40;56.70;;;;;;5112882;28;20047;-62
2023/04/11 02:16:24;;;;;;;2.70;0.60;;;19.50;56.70;;;;;;5113677;28;20402;-62
2023/04/11 02:18:50;;;;;;;2.28;0.60;;;19.40;56.70;;;;;;5114377;27;20050;-61
2023/04/11 02:21:16;;;;;;;1.92;0.70;;;19.40;56.70;;;;;;5113853;28;20048;-62
2023/04/11 02:23:41;;;;;;;2.55;0.60;;;19.40;56.60;;;;;;5113531;28;20491;-62
2023/04/11 02:26:07;;;;;;;2.17;0.70;;;19.40;56.60;;;;;;5114026;28;20047;-62
2023/04/11 02:28:32;;;;;;;1.92;0.60;;;19.40;56.60;;;;;;5113892;28;20082;-61
2023/04/11 02:30:58;;;;;;;1.23;0.60;;;19.40;56.60;;;;;;5111643;28;20040;-61
2023/04/11 02:33:25;;;;;;;1.33;0.60;;;19.40;56.50;;;;;;5114165;28;20459;-61
2023/04/11 02:35:50;;;;;;;2.10;0.75;;;19.30;56.60;;;;;;5113064;28;20058;-61
2023/04/11 02:38:16;;;;;;;2.05;0.60;;;19.30;56.50;;;;;;5113709;28;20465;-62
2023/04/11 02:40:41;;;;;;;2.00;0.50;;;19.40;56.60;;;;;;5114083;28;20035;-62
2023/04/11 02:43:07;;;;;;;1.08;0.40;;;19.40;56.60;;;;;;5112842;28;20471;-61
2023/04/11 02:45:32;;;;;;;0.95;0.38;;;19.30;56.60;;;;;;5112389;28;20040;-62
2023/04/11 02:47:58;;;;;;;1.33;0.52;;;19.30;56.60;;;;;;5113279;28;20096;-62
2023/04/11 02:50:27;;;;;;;3.33;0.68;;;19.30;56.60;;;;;;5112917;28;20044;-62
2023/04/11 02:52:53;;;;;;;1.90;0.65;;;19.30;56.50;;;;;;5112222;28;20031;-62
2023/04/11 02:55:18;;;;;;;1.80;0.63;;;19.30;56.40;;;;;;5113246;28;20096;-62
2023/04/11 02:57:44;;;;;;;1.98;0.60;;;19.30;56.50;;;;;;5101498;28;20483;-62
2023/04/11 03:00:10;;;;;;;2.15;0.55;;;19.30;56.40;;;;;;5092140;28;20044;-62
2023/04/11 03:02:36;;;;;;;1.95;0.55;;;19.40;56.40;;;;;;5092908;28;20042;-61
2023/04/11 03:05:02;;;;;;;1.10;0.50;;;19.30;56.30;;;;;;5092039;28;20048;-62
2023/04/11 03:07:31;;;;;;;3.25;0.80;;;19.40;56.30;;;;;;5091944;28;20131;-62
2023/04/11 03:09:57;;;;;;;2.95;0.55;;;19.40;56.30;;;;;;5093021;28;20044;-62
2023/04/11 03:12:23;;;;;;;2.08;0.63;;;19.40;56.30;;;;;;5092342;28;20048;-61
2023/04/11 03:14:49;;;;;;;2.90;0.65;;;19.40;56.30;;;;;;5092902;28;20078;-61
2023/04/11 03:17:14;;;;;;;1.08;0.50;;;19.40;56.30;;;;;;5092613;28;20071;-62
2023/04/11 03:19:40;;;;;;;2.22;0.77;;;19.40;56.30;;;;;;5092134;28;20050;-62
2023/04/11 03:22:05;;;;;;;2.10;0.60;;;19.40;56.40;;;;;;5090955;28;20059;-62
2023/04/11 03:24:31;;;;;;;2.63;0.70;;;19.40;56.30;;;;;;5091144;28;20087;-61
2023/04/11 03:26:57;;;;;;;1.67;0.70;;;19.40;56.40;;;;;;5091837;28;20052;-62
2023/04/11 03:29:23;;;;;;;2.67;0.68;;;19.40;56.40;;;;;;5092551;28;20040;-62
2023/04/11 03:31:49;;;;;;;1.33;0.63;;;19.40;56.40;;;;;;5092672;28;20051;-62
2023/04/11 03:34:16;;;;;;;1.35;0.57;;;19.50;56.50;;;;;;5091413;28;20055;-62
2023/04/11 03:36:42;;;;;;;1.40;0.73;;;19.50;56.40;;;;;;5092747;28;20040;-62
2023/04/11 03:39:07;;;;;;;2.78;0.68;;;19.50;56.40;;;;;;5091544;28;20117;-61
2023/04/11 03:41:33;;;;;;;2.50;0.77;;;19.50;56.30;;;;;;5091138;28;20043;-62
2023/04/11 03:43:59;;;;;;;1.85;0.50;;;19.50;56.30;;;;;;5090310;28;20114;-62
2023/04/11 03:46:25;;;;;;;2.63;0.70;;;19.60;56.40;;;;;;5091837;28;20040;-61
2023/04/11 03:48:50;;;;;;;2.67;0.70;;;19.60;56.40;;;;;;5092466;28;20040;-62
2023/04/11 03:51:16;;;;;;;1.08;0.40;;;19.60;56.40;;;;;;5091909;28;20040;-62
2023/04/11 03:53:41;;;;;;;1.38;0.63;;;19.60;56.30;;;;;;5090383;28;20115;-62
2023/04/11 03:56:08;;;;;;;2.60;0.60;;;19.60;56.30;;;;;;5092221;28;20391;-62
2023/04/11 03:58:33;;;;;;;1.77;0.52;;;19.60;56.30;;;;;;5091320;28;20040;-61
2023/04/11 04:00:59;;;;;;;4.45;0.60;;;19.60;56.30;;;;;;5091151;28;20054;-62
2023/04/11 04:03:24;;;;;;;1.90;0.60;;;19.70;56.30;;;;;;5091576;28;20048;-63
2023/04/11 04:05:50;;;;;;;1.92;0.60;;;19.70;56.30;;;;;;5091225;28;20048;-62
2023/04/11 04:08:15;;;;;;;2.88;0.70;;;19.70;56.40;;;;;;5090590;28;20044;-62
2023/04/11 04:10:41;;;;;;;4.35;0.52;;;19.70;56.30;;;;;;5092229;28;20044;-62
2023/04/11 04:13:06;;;;;;;3.63;0.60;;;19.70;56.30;;;;;;5093890;28;20123;-62
2023/04/11 04:15:32;;;;;;;2.53;0.55;;;19.70;56.30;;;;;;5095471;28;20127;-62
2023/04/11 04:17:58;;;;;;;1.98;0.73;;;19.70;56.20;;;;;;5095730;28;20051;-62
2023/04/11 04:20:23;;;;;;;1.60;0.50;;;19.80;56.30;;;;;;5096223;28;20048;-62
2023/04/11 04:22:52;;;;;;;2.40;0.50;;;19.80;56.20;;;;;;5093710;28;20564;-61
2023/04/11 04:25:18;;;;;;;;;;;19.80;56.20;;;;;;5096402;28;20093;-62
2023/04/11 04:27:45;;;;;;;3.85;0.70;;;19.80;56.20;;;;;;5096095;28;19942;-62
2023/04/11 04:30:14;;;;;;;1.48;0.50;;;19.80;56.20;;;;;;5094978;28;20040;-62
2023/04/11 04:32:42;;;;;;;2.28;0.60;;;19.80;56.20;;;;;;5095484;28;20511;-62
2023/04/11 04:35:09;;;;;;;2.05;0.50;;;19.80;56.20;;;;;;5095565;28;20115;-62
2023/04/11 04:37:38;;;;;;;2.30;0.60;;;19.80;56.10;;;;;;5094801;28;20526;-62
2023/04/11 04:40:07;;;;;;;3.25;0.77;;;19.80;56.20;;;;;;5094356;28;20071;-62
2023/04/11 04:42:33;;;;;;;1.10;0.47;;;19.80;56.20;;;;;;5092956;28;20051;-61
2023/04/11 04:44:58;;;;;;;1.55;0.52;;;19.90;56.20;;;;;;5094763;28;20055;-62
2023/04/11 04:47:28;;;;;;;3.63;0.63;;;19.90;56.30;;;;;;5095680;28;20032;-62
2023/04/11 04:49:56;;;;;;;1.73;0.50;;;19.90;56.20;;;;;;5094896;28;20056;-62
2023/04/11 04:52:26;;;;;;;1.95;0.80;;;19.90;56.20;;;;;;5095129;28;20444;-62
2023/04/11 04:54:52;;;;;;;1.48;0.50;;;19.90;56.20;;;;;;5095490;28;20044;-62
2023/04/11 04:57:17;;;;;;;1.50;0.52;;;19.90;56.20;;;;;;5094357;28;20052;-62
2023/04/11 04:59:44;;;;;;;3.08;0.70;;;19.90;56.20;;;;;;5095578;28;20042;-62
2023/04/11 05:02:09;;;;;;;1.35;0.52;;;19.90;56.10;;;;;;5095108;28;20043;-62
2023/04/11 05:04:35;;;;;;;2.20;0.57;;;19.90;56.10;;;;;;5092958;28;20097;-62
2023/04/11 05:07:01;;;;;;;1.27;0.40;;;19.90;56.10;;;;;;5095135;28;20480;-63
2023/04/11 05:09:26;;;;;;;2.78;0.63;;;19.90;56.10;;;;;;5095398;28;20047;-62
2023/04/11 05:11:52;;;;;;;1.77;0.60;;;20.00;56.20;;;;;;5094598;28;20040;-62
2023/04/11 05:14:20;;;;;;;2.35;0.65;;;20.00;56.10;;;;;;5095227;28;20048;-63
2023/04/11 05:16:46;;;;;;;1.88;0.40;;;20.00;56.10;;;;;;5093693;28;20047;-62
2023/04/11 05:19:11;;;;;;;1.92;0.60;;;20.00;56.10;;;;;;5093813;28;20048;-62
2023/04/11 05:21:37;;;;;;;1.40;0.52;;;20.00;56.20;;;;;;5094109;28;20052;-62
2023/04/11 05:24:03;;;;;;;1.33;0.40;;;20.00;56.10;;;;;;5093736;28;20395;-63
2023/04/11 05:26:30;;;;;;;2.20;0.60;;;20.00;56.20;;;;;;5094172;28;20384;-63
2023/04/11 05:28:56;;;;;;;1.88;0.50;;;20.00;56.20;;;;;;5094388;28;20549;-63
2023/04/11 05:31:21;;;;;;;2.10;0.47;;;20.00;56.10;;;;;;5095023;28;20123;-62
2023/04/11 05:33:47;;;;;;;2.13;0.47;;;20.00;56.10;;;;;;5092524;28;20042;-62
2023/04/11 05:36:12;;;;;;;1.05;0.40;;;20.00;56.10;;;;;;5094653;28;20040;-62
2023/04/11 05:38:41;;;;;;;2.72;0.63;;;20.00;56.10;;;;;;5094043;28;20044;-63
2023/04/11 05:41:07;;;;;;;1.85;0.47;;;20.00;56.10;;;;;;5093358;28;20059;-62
2023/04/11 05:43:33;;;;;;;2.33;0.40;;;20.00;56.00;;;;;;5097834;28;20394;-62
2023/04/11 05:45:59;;;;;;;1.88;0.52;;;20.00;56.10;;;;;;5112751;28;20051;-62
2023/04/11 05:48:24;;;;;;;1.85;0.40;;;20.00;56.10;;;;;;5114922;28;20039;-62
2023/04/11 05:50:50;;;;;;;1.63;0.52;;;20.00;56.10;;;;;;5114786;28;20043;-62
2023/04/11 05:53:16;;;;;;;2.33;0.50;;;20.10;56.10;;;;;;5113219;28;20028;-60
2023/04/11 05:55:41;;;;;;;2.47;0.60;;;20.10;56.00;;;;;;5114604;28;20513;-62
2023/04/11 05:58:08;;;;;;;3.13;0.60;;;20.10;56.10;;;;;;5114407;28;20063;-62
2023/04/11 06:00:34;;;;;;;4.47;0.70;;;20.10;56.00;;;;;;5093035;28;20040;-60
2023/04/11 06:03:00;;;;;;;4.82;0.77;;;20.10;56.00;;;;;;5092493;28;20032;-62
2023/04/11 06:05:30;;;;;;;20.15;1.08;;;20.10;56.10;;;;;;5092479;28;20101;-61
2023/04/11 06:07:58;;;;;;;3.30;0.88;;;20.10;56.10;;;;;;5075250;28;20044;-62
2023/04/11 06:10:24;;;;;;;3.25;0.60;;;20.10;56.10;;;;;;5093450;28;20051;-61
2023/04/11 06:12:50;;;;;;;2.88;0.60;;;20.10;56.10;;;;;;5091585;28;20473;-61
2023/04/11 06:15:16;;;;;;;3.47;0.63;;;20.10;56.10;;;;;;5092572;28;20126;-61
2023/04/11 06:17:41;;;;;;;3.95;0.73;;;20.10;56.10;;;;;;5093551;28;20131;-61
2023/04/11 06:20:09;;;;;;;4.00;0.60;;;20.10;56.20;;;;;;5093764;28;20475;-62
2023/04/11 06:22:35;;;;;;;4.20;0.70;;;20.10;56.20;;;;;;5092783;28;20052;-61
2023/04/11 06:25:00;;;;;;;5.70;0.70;;;20.10;56.30;;;;;;5092786;28;20055;-61
2023/04/11 06:27:26;;;;;;;3.28;0.90;;;20.20;56.30;;;;;;5092666;28;20376;-61
2023/04/11 06:29:51;;;;;;;4.40;0.90;;;20.10;56.30;;;;;;5092070;28;20040;-61
2023/04/11 06:32:17;;;;;;;4.13;0.70;;;20.20;56.40;;;;;;5092272;28;20395;-61
2023/04/11 06:34:43;;;;;;;4.85;0.70;;;20.20;56.50;;;;;;5093686;28;20180;-61
2023/04/11 06:37:08;;;;;;;6.00;0.85;;;20.20;56.60;;;;;;5092397;28;20055;-61
2023/04/11 06:39:34;;;;;;;5.13;0.93;;;20.20;56.80;;;;;;5092297;28;20035;-61
2023/04/11 06:42:00;;;;;;;3.40;0.75;;;20.20;56.90;;;;;;5092661;28;20048;-61
2023/04/11 06:44:26;;;;;;;5.40;1.08;;;20.20;57.00;;;;;;5092066;28;20048;-60
2023/04/11 06:46:52;;;;;;;3.42;0.80;;;20.30;57.20;;;;;;5093367;28;20127;-61
2023/04/11 06:49:17;;;;;;;4.78;0.73;;;20.20;57.20;;;;;;5092377;28;20043;-61
2023/04/11 06:51:46;;;;;;;5.05;0.82;;;20.20;57.20;;;;;;5092022;28;20490;-61
2023/04/11 06:54:11;;;;;;;5.60;0.88;;;20.30;57.40;;;;;;5092587;28;20043;-61
2023/04/11 06:56:37;;;;;;;6.95;1.05;;;20.30;57.30;;;;;;5090426;28;20028;-61
2023/04/11 06:59:03;;;;;;;4.75;0.80;;;20.30;57.30;;;;;;5092133;28;20047;-60
2023/04/11 07:01:34;;;;;;;2.67;0.80;;;20.30;57.20;;;;;;5092642;28;20044;-60
2023/04/11 07:04:00;;;;;;;3.22;0.88;;;20.30;57.20;;;;;;5091647;28;20043;-60
2023/04/11 07:06:26;;;;;;;2.40;0.95;;;20.30;57.20;;;;;;5092236;28;20097;-61
2023/04/11 07:08:52;;;;;;;2.97;0.80;;;20.30;57.20;;;;;;5091254;28;20083;-60
2023/04/11 07:11:17;;;;;;;4.07;0.85;;;20.30;57.90;;;;;;5091650;28;20075;-60
2023/04/11 07:13:43;;;;;;;4.13;0.85;;;20.30;57.20;;;;;;5092635;28;20136;-59
2023/04/11 07:16:09;;;;;;;4.03;0.90;;;20.30;57.20;;;;;;5091120;28;20040;-60
2023/04/11 07:18:34;;;;;;;3.00;0.80;;;20.30;57.10;;;;;;5092272;28;20055;-61
2023/04/11 07:21:00;;;;;;;4.15;0.80;;;20.30;57.20;;;;;;5092285;28;20202;-60
2023/04/11 07:23:26;;;;;;;5.00;1.00;;;20.30;57.20;;;;;;5092988;28;20075;-61
2023/04/11 07:25:53;;;;;;;2.17;0.50;;;20.30;57.20;;;;;;5089989;28;20111;-61
2023/04/11 07:28:18;;;;;;;3.88;0.80;;;20.30;57.20;;;;;;5092539;28;20071;-61
2023/04/11 07:30:45;;;;;;;2.85;0.82;;;20.30;57.20;;;;;;5091222;28;20044;-61
2023/04/11 07:33:10;;;;;;;3.10;0.80;;;20.30;57.20;;;;;;5091369;28;20052;-63
2023/04/11 07:35:36;;;;;;;7.15;0.70;;;20.30;57.10;;;;;;5090486;28;20067;-63
2023/04/11 07:38:02;;;;;;;3.53;0.98;;;20.30;56.80;;;;;;5092261;28;20033;-62
2023/04/11 07:40:27;;;;;;;3.03;0.60;;;20.30;57.50;;;;;;5091969;28;20043;-66
2023/04/11 07:42:53;;;;;;;3.42;0.68;;;20.30;56.80;;;;;;5091238;28;20509;-61
2023/04/11 07:45:19;;;;;;;2.97;0.90;;;20.30;56.70;;;;;;5091395;28;20450;-64
2023/04/11 07:47:45;;;;;;;3.63;0.88;;;20.30;56.80;;;;;;5091816;28;20044;-70
2023/04/11 07:50:10;;;;;;;2.60;1.05;;;20.30;56.70;;;;;;5090904;28;20050;-61
2023/04/11 07:52:36;;;;;;;5.22;0.70;;;20.30;56.70;;;;;;5091942;28;20071;-61
2023/04/11 07:55:03;;;;;;;4.80;0.85;;;20.30;56.80;;;;;;5092216;28;20044;-61
2023/04/11 07:57:28;;;;;;;3.75;1.08;;;20.30;57.50;;;;;;5092893;28;20040;-62
2023/04/11 07:59:55;;;;;;;3.92;1.30;;;20.30;56.70;;;;;;5092126;28;20406;-62
2023/04/11 08:02:22;;;;;;;4.03;1.10;;;20.30;56.70;;;;;;5090945;28;20055;-62
2023/04/11 08:04:47;;;;;;;4.10;0.90;;;20.30;56.70;;;;;;5091465;28;20050;-62
2023/04/11 08:07:13;;;;;;;4.38;1.15;;;20.30;56.70;;;;;;5091407;28;20040;-62
2023/04/11 08:09:38;;;;;;;3.97;0.73;;;20.30;56.70;;;;;;5092857;28;20097;-61
2023/04/11 08:12:05;;;;;;;4.88;0.93;;;20.30;56.60;;;;;;5092514;28;20040;-62
2023/04/11 08:14:30;;;;;;;8.68;1.10;;;20.30;56.60;;;;;;5092121;28;20083;-62
2023/04/11 08:16:56;;;;;;;2.05;0.88;;;20.30;56.60;;;;;;5091353;28;20083;-61
2023/04/11 08:19:21;;;;;;;3.42;0.95;;;20.30;56.60;;;;;;5092613;28;20387;-62
2023/04/11 08:21:47;;;;;;;5.75;1.42;;;20.30;56.60;;;;;;5090227;28;20060;-61
2023/04/11 08:24:12;;;;;;;3.53;1.10;;;20.30;56.50;;;;;;5092358;28;20104;-62
2023/04/11 08:26:38;;;;;;;4.68;0.98;;;20.30;56.50;;;;;;5092651;28;20040;-62
2023/04/11 08:29:03;;;;;;;4.80;1.52;;;20.30;56.60;;;;;;5090213;28;20055;-62
2023/04/11 08:31:31;;;;;;;5.70;1.25;;;20.30;56.60;;;;;;5092391;28;20043;-61
2023/04/11 08:33:56;;;;;;;2.13;0.82;;;20.30;56.60;;;;;;5090522;28;20483;-62
2023/04/11 08:36:22;;;;;;;3.67;1.00;;;20.30;56.50;;;;;;5091434;28;20036;-61
2023/04/11 08:38:47;;;;;;;3.40;1.20;;;20.30;57.20;;;;;;5091849;28;20063;-61
2023/04/11 08:41:13;;;;;;;2.83;1.20;;;20.30;56.40;;;;;;5091744;28;20039;-61
2023/04/11 08:43:39;;;;;;;3.70;1.02;;;20.30;56.50;;;;;;5091196;28;20036;-61
2023/04/11 08:46:08;;;;;;;6.63;1.20;;;20.30;56.40;;;;;;5090176;28;20052;-61
2023/04/11 08:48:34;;;;;;;2.80;1.08;;;20.30;56.20;;;;;;5091213;28;20115;-61
2023/04/11 08:51:00;;;;;;;4.15;1.20;;;20.30;56.20;;;;;;5091859;28;20464;-61
2023/04/11 08:53:26;;;;;;;3.10;1.10;;;20.30;56.20;;;;;;5092124;28;20040;-61
2023/04/11 08:55:51;;;;;;;2.45;1.10;;;20.30;56.20;;;;;;5091259;28;20376;-61
2023/04/11 08:58:17;;;;;;;3.67;1.05;;;20.30;56.20;;;;;;5089231;28;20430;-61
2023/04/11 09:00:43;;;;;;;2.70;1.00;;;20.30;56.20;;;;;;5094367;28;20576;-61
2023/04/11 09:03:10;;;;;;;2.50;0.95;;;20.30;56.10;;;;;;5090784;28;20078;-61
2023/04/11 09:05:56;;;;;;;4.05;0.90;;;20.30;56.10;;;;;;5091056;28;20072;-61
2023/04/11 09:08:21;;;;;;;3.92;1.02;;;20.30;56.00;;;;;;5092734;28;20399;-61
2023/04/11 09:10:47;;;;;;;3.17;1.10;;;20.20;55.90;;;;;;5093480;28;20032;-61
2023/04/11 09:13:21;;;;;;;2.72;0.80;;;20.20;55.90;;;;;;5095113;28;20491;-61
2023/04/11 09:15:47;;;;;;;6.72;1.92;;;20.20;55.90;;;;;;5095585;28;20040;-61
2023/04/11 09:18:51;;;;;;;3.65;1.00;;;20.20;55.90;;;;;;5093287;28;20043;-61
2023/04/11 09:21:17;;;;;;;3.03;1.13;;;20.20;55.80;;;;;;5031566;28;20072;-61
2023/04/11 09:23:43;;;;;;;4.03;0.90;;;20.30;55.90;;;;;;5027484;28;20050;-61
2023/04/11 09:26:09;;;;;;;2.47;0.80;;;20.30;56.60;;;;;;5055257;28;20059;-61
2023/04/11 09:28:52;;;;;;;3.75;1.00;;;20.30;55.90;;;;;;5095197;28;20038;-62
2023/04/11 09:31:18;;;;;;;3.75;0.80;;;20.30;55.90;;;;;;5089862;28;20097;-62
2023/04/11 09:33:53;;;;;;;3.88;0.90;;;20.30;55.90;;;;;;5090623;28;20040;-62
2023/04/11 09:36:20;;;;;;;4.38;0.85;;;20.30;55.90;;;;;;5094008;28;20471;-62
2023/04/11 09:38:46;;;;;;;5.95;1.08;;;20.30;56.00;;;;;;5094188;28;20035;-62
2023/04/11 09:41:11;;;;;;;3.83;1.05;;;20.30;56.00;;;;;;5094253;28;20093;-63
2023/04/11 09:43:54;;;;;;;2.17;0.77;;;20.20;56.00;;;;;;5093254;28;20078;-62
2023/04/11 09:46:20;;;;;;;4.53;0.90;;;20.20;56.00;;;;;;5093252;28;20032;-61
2023/04/11 09:48:49;;;;;;;3.65;1.10;;;20.30;56.10;;;;;;5093558;28;20040;-62
2023/04/11 09:51:15;;;;;;;3.72;1.10;;;20.20;56.10;;;;;;5093417;28;20391;-62
2023/04/11 09:53:41;;;;;;;3.88;1.08;;;20.20;56.10;;;;;;5094359;28;20054;-64
2023/04/11 09:56:07;;;;;;;4.50;0.95;;;20.20;56.10;;;;;;5094262;28;20036;-63
2023/04/11 09:58:35;;;;;;;3.92;0.88;;;20.20;56.10;;;;;;5094072;28;20086;-63
2023/04/11 10:01:00;;;;;;;2.72;0.90;;;20.20;56.10;;;;;;5091976;28;20073;-62
2023/04/11 10:03:26;;;;;;;4.15;1.05;;;20.20;56.20;;;;;;5093947;28;20032;-63
2023/04/11 10:05:53;;;;;;;3.65;0.70;;;20.20;56.20;;;;;;5093427;28;20040;-63
2023/04/11 10:08:30;;;;;;;4.00;1.00;;;20.30;56.20;;;;;;5092984;28;20028;-59
2023/04/11 10:10:56;;;;;;;5.03;1.00;;;20.30;56.20;;;;;;5092437;28;20075;-63
2023/04/11 10:13:34;;;;;;;3.75;1.00;;;20.30;56.30;;;;;;5088446;28;20083;-61
2023/04/11 10:16:10;;;;;;;;;;;20.30;56.50;;;;;;5090515;28;20036;-63
2023/04/11 10:18:36;;;;;;;4.10;1.00;;;20.30;56.50;;;;;;5087341;28;19927;-63
2023/04/11 10:21:02;;;;;;;4.38;1.20;;;20.30;56.50;;;;;;5092360;28;20087;-63
2023/04/11 10:23:28;;;;;;;7.05;1.23;;;20.40;56.80;;;;;;5075410;28;20094;-63
2023/04/11 10:26:02;;;;;;;6.00;1.20;;;20.40;56.90;;;;;;5090030;28;20426;-64
2023/04/11 10:28:37;;;;;;;4.65;1.30;;;20.40;57.00;;;;;;5074767;28;20472;-65
2023/04/11 10:31:08;;;;;;;3.88;1.05;;;20.40;56.90;;;;;;5092260;28;20040;-64
2023/04/11 10:33:34;;;;;;;4.85;1.10;;;20.40;56.90;;;;;;5094133;28;20036;-63
2023/04/11 10:36:10;;;;;;;6.32;1.60;;;20.40;56.90;;;;;;5093095;28;20052;-63
2023/04/11 10:38:47;;;;;;;5.57;1.02;;;20.40;56.80;;;;;;5092931;28;20066;-63
2023/04/11 10:41:16;;;;;;;4.55;1.10;;;20.30;56.70;;;;;;5091875;28;20035;-63
2023/04/11 10:43:42;;;;;;;4.13;0.90;;;20.30;56.70;;;;;;5092417;28;20044;-64
2023/04/11 10:46:18;;;;;;;3.38;0.98;;;20.30;56.80;;;;;;5093226;28;20108;-63
2023/04/11 10:49:00;;;;;;;4.18;1.40;;;20.30;56.80;;;;;;5093152;28;20048;-64
2023/04/11 10:51:26;;;;;;;3.58;0.90;;;20.30;56.80;;;;;;5093727;28;20085;-62
2023/04/11 10:53:52;;;;;;;2.85;1.10;;;20.30;56.90;;;;;;5093698;28;20054;-63
2023/04/11 10:56:50;;;;;;;3.47;0.90;;;20.30;57.00;;;;;;5074523;28;20131;-62
2023/04/11 10:59:30;;;;;;;;;;;20.30;57.20;;;;;;5085378;28;20091;-60
2023/04/11 11:02:00;;;;;;;4.65;1.10;;;20.30;57.20;;;;;;5081599;28;20339;-61
2023/04/11 11:04:32;;;;;;;9.00;1.35;;;20.30;57.20;;;;;;5091899;28;20475;-61
2023/04/11 11:06:58;;;;;;;2.00;0.82;;;20.30;57.20;;;;;;5085932;28;20506;-60
2023/04/11 11:09:25;;;;;;;5.07;1.10;;;20.30;57.20;;;;;;5091509;28;20036;-60
2023/04/11 11:12:13;;;;;;;5.97;1.20;;;20.30;57.20;;;;;;5092188;28;20047;-62
2023/04/11 11:14:44;;;;;;;6.18;1.17;;;20.30;57.20;;;;;;5089930;28;20036;-62
2023/04/11 11:17:10;;;;;;;7.20;1.40;;;20.30;57.20;;;;;;5091959;28;20047;-62
2023/04/11 11:19:36;;;;;;;4.30;0.98;;;20.30;57.20;;;;;;5092941;28;20040;-62
2023/04/11 11:22:05;;;;;;;5.47;1.05;;;20.30;57.20;;;;;;5091607;28;20134;-62
2023/04/11 11:24:31;;;;;;;2.47;0.80;;;20.30;57.20;;;;;;5090922;28;20059;-63
2023/04/11 11:26:56;;;;;;;5.78;1.08;;;20.30;57.20;;;;;;5092608;28;20042;-62
2023/04/11 11:29:30;;;;;;;2.97;0.75;;;20.40;57.20;;;;;;5092769;28;20112;-62
2023/04/11 11:31:56;;;;;;;2.85;0.90;;;20.40;57.20;;;;;;5089227;28;20074;-62
2023/04/11 11:34:27;;;;;;;2.42;0.80;;;20.40;57.10;;;;;;5092574;28;20119;-62
2023/04/11 11:36:52;;;;;;;4.80;0.90;;;20.40;57.00;;;;;;5092816;28;20044;-62
2023/04/11 11:39:18;;;;;;;4.10;0.90;;;20.40;56.90;;;;;;5090274;28;20081;-63
2023/04/11 11:41:43;;;;;;;5.22;0.85;;;20.40;56.90;;;;;;5091350;28;20040;-63
2023/04/11 11:44:26;;;;;;;3.97;1.00;;;20.40;56.80;;;;;;5092018;28;20063;-62
2023/04/11 11:47:04;;;;;;;3.00;0.88;;;20.50;56.80;;;;;;5092177;28;20518;-63
2023/04/11 11:49:45;;;;;;;;;;;20.50;56.80;;;;;;5091826;28;20044;-61
2023/04/11 11:52:11;;;;;;;5.95;0.98;;;20.50;56.70;;;;;;5083011;28;19963;-60
2023/04/11 11:54:44;;;;;;;4.68;1.25;;;20.40;56.60;;;;;;5088501;28;20063;-62
2023/04/11 11:57:09;;;;;;;4.38;1.17;;;20.50;56.60;;;;;;5085134;28;20449;-62
2023/04/11 11:59:35;;;;;;;4.78;1.05;;;20.50;56.60;;;;;;5087313;28;20467;-62
2023/04/11 12:02:02;;;;;;;5.72;1.15;;;20.50;56.60;;;;;;5073034;28;20040;-63
2023/04/11 12:04:29;;;;;;;3.88;1.08;;;20.50;56.70;;;;;;5090059;28;20040;-62
2023/04/11 12:06:55;;;;;;;5.40;0.95;;;20.50;56.60;;;;;;5089215;28;20553;-63
2023/04/11 12:09:20;;;;;;;3.70;0.65;;;20.50;56.60;;;;;;5091561;28;20047;-62
2023/04/11 12:11:46;;;;;;;4.35;0.90;;;20.50;56.50;;;;;;5090457;28;20093;-63
2023/04/11 12:14:21;;;;;;;4.25;0.88;;;20.50;56.40;;;;;;5086746;28;20158;-62
2023/04/11 12:16:46;;;;;;;2.45;1.00;;;20.50;56.30;;;;;;5091896;28;20134;-62
2023/04/11 12:19:12;;;;;;;3.53;0.90;;;20.50;56.30;;;;;;5087712;28;20120;-64
2023/04/11 12:21:37;;;;;;;2.47;0.90;;;20.60;56.40;;;;;;5089684;28;20488;-61
2023/04/11 12:24:03;;;;;;;3.42;0.70;;;20.60;56.50;;;;;;5091115;28;20127;-62
2023/04/11 12:26:29;;;;;;;5.50;0.98;;;20.60;56.40;;;;;;5090184;28;20082;-62
2023/04/11 12:28:54;;;;;;;4.03;0.85;;;20.60;56.40;;;;;;5087947;28;20044;-61
2023/04/11 12:31:20;;;;;;;3.25;0.82;;;20.60;56.30;;;;;;5080869;28;20109;-61
2023/04/11 12:33:46;;;;;;;4.13;0.70;;;20.60;56.20;;;;;;5090883;28;20421;-62
2023/04/11 12:36:11;;;;;;;4.45;1.00;;;20.60;56.20;;;;;;5091268;28;20044;-61
2023/04/11 12:38:37;;;;;;;2.65;0.50;;;20.60;56.00;;;;;;5095587;28;20050;-62
2023/04/11 12:41:03;;;;;;;2.92;0.63;;;20.60;55.90;;;;;;5093314;28;20054;-61
2023/04/11 12:43:28;;;;;;;3.60;0.90;;;20.60;55.80;;;;;;5092965;28;20122;-62
2023/04/11 12:45:54;;;;;;;2.60;0.77;;;20.60;55.80;;;;;;5089053;28;20135;-62